sensor_id;sensor_type;location;lat;lon;timestamp;P1;durP1;ratioP1;P2;durP2;ratioP2
10142;SDS011;5112;54.088;13.446;2023-08-07T00:03:43;4.60;;;2.57;;
10142;SDS011;5112;54.088;13.446;2023-08-07T00:13:46;3.97;;;2.80;;
10142;SDS011;5112;54.088;13.446;2023-08-07T00:23:48;2.80;;;2.60;;
10142;SDS011;5112;54.088;13.446;2023-08-07T00:33:51;2.47;;;2.20;;
10142;SDS011;5112;54.088;13.446;2023-08-07T00:43:55;2.60;;;2.40;;
10142;SDS011;5112;54.088;13.446;2023-08-07T00:53:58;3.63;;;2.30;;
10142;SDS011;5112;54.088;13.446;2023-08-07T01:04:01;4.60;;;2.40;;
10142;SDS011;5112;54.088;13.446;2023-08-07T01:14:07;3.47;;;2.20;;
10142;SDS011;5112;54.088;13.446;2023-08-07T01:24:16;2.87;;;2.40;;
10142;SDS011;5112;54.088;13.446;2023-08-07T01:34:17;4.10;;;3.33;;
10142;SDS011;5112;54.088;13.446;2023-08-07T01:44:25;4.70;;;2.83;;
10142;SDS011;5112;54.088;13.446;2023-08-07T01:54:26;3.20;;;2.90;;
10142;SDS011;5112;54.088;13.446;2023-08-07T02:04:30;4.97;;;3.30;;
10142;SDS011;5112;54.088;13.446;2023-08-07T02:14:31;3.67;;;2.83;;
10142;SDS011;5112;54.088;13.446;2023-08-07T02:24:34;4.27;;;3.60;;
10142;SDS011;5112;54.088;13.446;2023-08-07T02:34:37;4.10;;;2.90;;
10142;SDS011;5112;54.088;13.446;2023-08-07T02:44:40;5.07;;;3.23;;
10142;SDS011;5112;54.088;13.446;2023-08-07T02:54:42;4.37;;;3.07;;
10142;SDS011;5112;54.088;13.446;2023-08-07T03:04:45;5.53;;;3.47;;
10142;SDS011;5112;54.088;13.446;2023-08-07T03:14:46;3.50;;;3.00;;
10142;SDS011;5112;54.088;13.446;2023-08-07T03:24:49;3.03;;;2.73;;
10142;SDS011;5112;54.088;13.446;2023-08-07T03:34:51;5.83;;;3.20;;
10142;SDS011;5112;54.088;13.446;2023-08-07T03:44:54;3.43;;;2.77;;
10142;SDS011;5112;54.088;13.446;2023-08-07T03:54:55;4.27;;;3.07;;
10142;SDS011;5112;54.088;13.446;2023-08-07T04:04:58;5.97;;;3.40;;
10142;SDS011;5112;54.088;13.446;2023-08-07T04:15:00;2.93;;;2.63;;
10142;SDS011;5112;54.088;13.446;2023-08-07T04:25:04;3.10;;;2.43;;
10142;SDS011;5112;54.088;13.446;2023-08-07T04:35:06;4.07;;;3.00;;
10142;SDS011;5112;54.088;13.446;2023-08-07T04:45:10;3.83;;;2.80;;
10142;SDS011;5112;54.088;13.446;2023-08-07T04:55:12;5.57;;;2.80;;
10142;SDS011;5112;54.088;13.446;2023-08-07T05:05:15;3.53;;;2.83;;
10142;SDS011;5112;54.088;13.446;2023-08-07T05:15:17;4.60;;;3.03;;
10142;SDS011;5112;54.088;13.446;2023-08-07T05:25:20;5.00;;;3.13;;
10142;SDS011;5112;54.088;13.446;2023-08-07T05:35:21;4.67;;;3.03;;
10142;SDS011;5112;54.088;13.446;2023-08-07T05:45:24;5.37;;;3.00;;
10142;SDS011;5112;54.088;13.446;2023-08-07T05:55:26;3.73;;;3.03;;
10142;SDS011;5112;54.088;13.446;2023-08-07T06:05:29;4.37;;;3.30;;
10142;SDS011;5112;54.088;13.446;2023-08-07T06:15:31;3.17;;;2.87;;
10142;SDS011;5112;54.088;13.446;2023-08-07T06:25:35;3.23;;;3.03;;
10142;SDS011;5112;54.088;13.446;2023-08-07T06:35:37;4.70;;;3.17;;
10142;SDS011;5112;54.088;13.446;2023-08-07T06:45:40;4.97;;;3.07;;
10142;SDS011;5112;54.088;13.446;2023-08-07T06:55:42;3.83;;;3.30;;
10142;SDS011;5112;54.088;13.446;2023-08-07T07:05:46;4.80;;;3.90;;
10142;SDS011;5112;54.088;13.446;2023-08-07T07:15:52;4.40;;;3.40;;
10142;SDS011;5112;54.088;13.446;2023-08-07T07:25:55;5.30;;;3.57;;
10142;SDS011;5112;54.088;13.446;2023-08-07T07:35:58;3.93;;;3.53;;
10142;SDS011;5112;54.088;13.446;2023-08-07T07:46:03;6.47;;;4.43;;
10142;SDS011;5112;54.088;13.446;2023-08-07T07:56:04;5.53;;;3.40;;
10142;SDS011;5112;54.088;13.446;2023-08-07T08:06:07;5.33;;;3.80;;
10142;SDS011;5112;54.088;13.446;2023-08-07T08:16:09;10.93;;;5.43;;
10142;SDS011;5112;54.088;13.446;2023-08-07T08:26:12;10.47;;;4.23;;
10142;SDS011;5112;54.088;13.446;2023-08-07T08:36:14;9.47;;;4.73;;
10142;SDS011;5112;54.088;13.446;2023-08-07T08:46:17;9.77;;;5.07;;
10142;SDS011;5112;54.088;13.446;2023-08-07T08:56:20;11.57;;;5.30;;
10142;SDS011;5112;54.088;13.446;2023-08-07T09:06:24;9.77;;;5.83;;
10142;SDS011;5112;54.088;13.446;2023-08-07T09:16:28;11.17;;;4.70;;
10142;SDS011;5112;54.088;13.446;2023-08-07T09:26:33;9.30;;;5.20;;
10142;SDS011;5112;54.088;13.446;2023-08-07T09:36:34;8.67;;;5.20;;
10142;SDS011;5112;54.088;13.446;2023-08-07T09:46:44;15.80;;;5.90;;
10142;SDS011;5112;54.088;13.446;2023-08-07T09:56:46;11.47;;;5.37;;
10142;SDS011;5112;54.088;13.446;2023-08-07T10:06:49;8.33;;;4.77;;
10142;SDS011;5112;54.088;13.446;2023-08-07T10:16:52;8.67;;;5.27;;
10142;SDS011;5112;54.088;13.446;2023-08-07T10:26:56;11.97;;;5.60;;
10142;SDS011;5112;54.088;13.446;2023-08-07T10:36:58;12.87;;;5.70;;
10142;SDS011;5112;54.088;13.446;2023-08-07T10:47:01;15.77;;;5.40;;
10142;SDS011;5112;54.088;13.446;2023-08-07T10:57:03;14.00;;;5.83;;
10142;SDS011;5112;54.088;13.446;2023-08-07T11:07:14;10.57;;;5.30;;
10142;SDS011;5112;54.088;13.446;2023-08-07T11:17:26;15.43;;;5.87;;
10142;SDS011;5112;54.088;13.446;2023-08-07T11:27:31;13.67;;;5.60;;
10142;SDS011;5112;54.088;13.446;2023-08-07T11:37:33;14.10;;;5.97;;
10142;SDS011;5112;54.088;13.446;2023-08-07T11:47:36;15.57;;;6.50;;
10142;SDS011;5112;54.088;13.446;2023-08-07T11:57:38;13.40;;;5.40;;
10142;SDS011;5112;54.088;13.446;2023-08-07T12:07:43;14.13;;;5.87;;
10142;SDS011;5112;54.088;13.446;2023-08-07T12:17:45;12.40;;;5.60;;
10142;SDS011;5112;54.088;13.446;2023-08-07T12:27:48;9.73;;;4.53;;
10142;SDS011;5112;54.088;13.446;2023-08-07T12:37:50;11.40;;;4.40;;
10142;SDS011;5112;54.088;13.446;2023-08-07T12:47:53;8.13;;;4.30;;
10142;SDS011;5112;54.088;13.446;2023-08-07T12:57:55;10.60;;;4.80;;
10142;SDS011;5112;54.088;13.446;2023-08-07T13:07:58;9.40;;;4.30;;
10142;SDS011;5112;54.088;13.446;2023-08-07T13:18:00;9.73;;;4.17;;
10142;SDS011;5112;54.088;13.446;2023-08-07T13:28:04;8.90;;;3.70;;
10142;SDS011;5112;54.088;13.446;2023-08-07T13:38:06;7.33;;;3.40;;
10142;SDS011;5112;54.088;13.446;2023-08-07T13:48:11;7.83;;;3.67;;
10142;SDS011;5112;54.088;13.446;2023-08-07T13:58:14;7.53;;;3.13;;
10142;SDS011;5112;54.088;13.446;2023-08-07T14:08:17;5.33;;;3.37;;
10142;SDS011;5112;54.088;13.446;2023-08-07T14:18:19;6.60;;;3.00;;
10142;SDS011;5112;54.088;13.446;2023-08-07T14:28:22;5.97;;;3.03;;
10142;SDS011;5112;54.088;13.446;2023-08-07T14:38:24;8.60;;;3.90;;
10142;SDS011;5112;54.088;13.446;2023-08-07T14:48:27;10.00;;;3.43;;
10142;SDS011;5112;54.088;13.446;2023-08-07T14:58:28;7.93;;;3.27;;
10142;SDS011;5112;54.088;13.446;2023-08-07T15:08:33;6.23;;;3.23;;
10142;SDS011;5112;54.088;13.446;2023-08-07T15:18:35;7.53;;;2.80;;
10142;SDS011;5112;54.088;13.446;2023-08-07T15:28:38;8.03;;;3.23;;
10142;SDS011;5112;54.088;13.446;2023-08-07T15:38:40;5.90;;;2.67;;
10142;SDS011;5112;54.088;13.446;2023-08-07T15:48:43;7.10;;;2.93;;
10142;SDS011;5112;54.088;13.446;2023-08-07T15:58:45;6.33;;;3.10;;
10142;SDS011;5112;54.088;13.446;2023-08-07T16:08:48;7.70;;;2.87;;
10142;SDS011;5112;54.088;13.446;2023-08-07T16:18:50;8.63;;;2.97;;
10142;SDS011;5112;54.088;13.446;2023-08-07T16:28:53;6.17;;;2.97;;
10142;SDS011;5112;54.088;13.446;2023-08-07T16:38:54;7.47;;;2.97;;
10142;SDS011;5112;54.088;13.446;2023-08-07T16:48:57;9.37;;;3.50;;
10142;SDS011;5112;54.088;13.446;2023-08-07T16:58:59;12.43;;;3.67;;
10142;SDS011;5112;54.088;13.446;2023-08-07T17:09:02;9.17;;;3.43;;
10142;SDS011;5112;54.088;13.446;2023-08-07T17:19:04;7.57;;;3.90;;
10142;SDS011;5112;54.088;13.446;2023-08-07T17:29:07;9.87;;;4.20;;
10142;SDS011;5112;54.088;13.446;2023-08-07T17:39:08;7.90;;;4.37;;
10142;SDS011;5112;54.088;13.446;2023-08-07T17:49:12;9.97;;;4.20;;
10142;SDS011;5112;54.088;13.446;2023-08-07T17:59:13;7.03;;;3.53;;
10142;SDS011;5112;54.088;13.446;2023-08-07T18:09:16;9.57;;;3.73;;
10142;SDS011;5112;54.088;13.446;2023-08-07T18:19:18;11.33;;;3.63;;
10142;SDS011;5112;54.088;13.446;2023-08-07T18:29:21;10.90;;;3.40;;
10142;SDS011;5112;54.088;13.446;2023-08-07T18:39:23;6.43;;;3.13;;
10142;SDS011;5112;54.088;13.446;2023-08-07T18:49:26;6.07;;;2.83;;
10142;SDS011;5112;54.088;13.446;2023-08-07T18:59:27;6.90;;;3.00;;
10142;SDS011;5112;54.088;13.446;2023-08-07T19:09:30;5.70;;;3.07;;
10142;SDS011;5112;54.088;13.446;2023-08-07T19:19:32;8.80;;;2.80;;
10142;SDS011;5112;54.088;13.446;2023-08-07T19:29:35;10.63;;;3.37;;
10142;SDS011;5112;54.088;13.446;2023-08-07T19:39:37;9.13;;;3.53;;
10142;SDS011;5112;54.088;13.446;2023-08-07T19:49:40;7.97;;;2.80;;
10142;SDS011;5112;54.088;13.446;2023-08-07T19:59:41;11.17;;;3.63;;
10142;SDS011;5112;54.088;13.446;2023-08-07T20:09:45;10.13;;;3.50;;
10142;SDS011;5112;54.088;13.446;2023-08-07T20:19:46;10.90;;;3.27;;
10142;SDS011;5112;54.088;13.446;2023-08-07T20:29:49;9.87;;;3.50;;
10142;SDS011;5112;54.088;13.446;2023-08-07T20:39:52;9.83;;;3.47;;
10142;SDS011;5112;54.088;13.446;2023-08-07T20:49:55;10.23;;;3.90;;
10142;SDS011;5112;54.088;13.446;2023-08-07T20:59:57;10.83;;;3.83;;
10142;SDS011;5112;54.088;13.446;2023-08-07T21:10:00;10.27;;;3.57;;
10142;SDS011;5112;54.088;13.446;2023-08-07T21:20:02;7.27;;;3.50;;
10142;SDS011;5112;54.088;13.446;2023-08-07T21:30:06;8.60;;;3.40;;
10142;SDS011;5112;54.088;13.446;2023-08-07T21:40:09;10.30;;;4.10;;
10142;SDS011;5112;54.088;13.446;2023-08-07T21:50:12;7.73;;;3.50;;
10142;SDS011;5112;54.088;13.446;2023-08-07T22:00:14;7.60;;;3.73;;
10142;SDS011;5112;54.088;13.446;2023-08-07T22:10:17;9.97;;;3.40;;
10142;SDS011;5112;54.088;13.446;2023-08-07T22:20:19;8.50;;;3.83;;
10142;SDS011;5112;54.088;13.446;2023-08-07T22:30:23;6.70;;;3.17;;
10142;SDS011;5112;54.088;13.446;2023-08-07T22:40:24;7.97;;;3.47;;
10142;SDS011;5112;54.088;13.446;2023-08-07T22:50:27;6.43;;;3.60;;
10142;SDS011;5112;54.088;13.446;2023-08-07T23:00:29;7.30;;;3.40;;
10142;SDS011;5112;54.088;13.446;2023-08-07T23:10:34;7.83;;;4.10;;
10142;SDS011;5112;54.088;13.446;2023-08-07T23:20:36;8.90;;;3.83;;
10142;SDS011;5112;54.088;13.446;2023-08-07T23:30:39;7.63;;;3.80;;
10142;SDS011;5112;54.088;13.446;2023-08-07T23:40:41;8.20;;;3.57;;
10142;SDS011;5112;54.088;13.446;2023-08-07T23:50:44;7.10;;;3.83;;
